createdAt,value
2022-12-31T00:01:27.572Z,101199.13
2022-12-31T00:04:30.064Z,101217.44
2022-12-31T00:10:41.631Z,101223.75
2022-12-31T00:13:46.571Z,101223.91
2022-12-31T00:16:49.106Z,101211.59
2022-12-31T00:19:51.618Z,101213.22
2022-12-31T00:22:54.143Z,101216.84
2022-12-31T00:25:56.280Z,101223.34
2022-12-31T00:29:00.294Z,101232.22
2022-12-31T00:32:02.338Z,101242.75
2022-12-31T00:35:05.277Z,101242.59
2022-12-31T00:38:07.396Z,101246.22
2022-12-31T00:41:10.437Z,101248.69
2022-12-31T00:44:12.745Z,101238.50
2022-12-31T00:47:15.347Z,101243.00
2022-12-31T00:50:17.612Z,101249.00
2022-12-31T00:53:21.105Z,101244.53
2022-12-31T00:56:26.386Z,101243.00
2022-12-31T00:59:28.820Z,101250.66
2022-12-31T01:02:31.164Z,101258.44
2022-12-31T01:05:35.311Z,101260.44
2022-12-31T01:08:37.589Z,101263.22
2022-12-31T01:11:40.668Z,101254.28
2022-12-31T01:14:42.960Z,101259.09
2022-12-31T01:17:45.416Z,101266.34
2022-12-31T01:20:47.546Z,101253.94
2022-12-31T01:23:50.344Z,101259.00
2022-12-31T01:26:52.569Z,101258.16
2022-12-31T01:29:55.045Z,101264.16
2022-12-31T01:32:57.593Z,101261.72
2022-12-31T01:36:05.832Z,101264.53
2022-12-31T01:39:09.423Z,101259.00
2022-12-31T01:42:12.365Z,101271.41
2022-12-31T01:45:14.596Z,101270.25
2022-12-31T01:48:22.272Z,101275.84
2022-12-31T01:51:27.328Z,101266.25
2022-12-31T01:54:34.951Z,101263.19
2022-12-31T01:57:38.129Z,101264.34
2022-12-31T02:00:40.787Z,101260.84
2022-12-31T02:03:43.463Z,101253.50
2022-12-31T02:07:01.853Z,101263.91
2022-12-31T02:10:05.037Z,101266.28
2022-12-31T02:13:07.628Z,101282.62
2022-12-31T02:16:40.856Z,101280.59
2022-12-31T02:20:15.807Z,101277.22
2022-12-31T02:23:32.655Z,101279.00
2022-12-31T02:26:59.817Z,101274.50
2022-12-31T02:30:08.601Z,101268.00
2022-12-31T02:33:22.192Z,101264.06
2022-12-31T02:36:29.909Z,101261.34
2022-12-31T02:39:34.032Z,101268.50
2022-12-31T02:42:36.880Z,101275.75
2022-12-31T02:45:47.463Z,101277.16
2022-12-31T02:49:00.039Z,101282.22
2022-12-31T02:52:34.411Z,101280.44
2022-12-31T02:55:50.633Z,101277.78
2022-12-31T02:59:18.020Z,101276.56
2022-12-31T03:02:23.053Z,101261.84
2022-12-31T03:05:29.457Z,101260.66
2022-12-31T03:08:32.094Z,101257.13
2022-12-31T03:11:52.958Z,101253.53
2022-12-31T03:14:55.528Z,101243.25
2022-12-31T03:17:59.953Z,101259.97
2022-12-31T03:21:20.865Z,101262.44
2022-12-31T03:24:42.269Z,101229.87
2022-12-31T03:27:45.872Z,101229.87
2022-12-31T03:30:51.635Z,101263.03
2022-12-31T03:33:54.234Z,101254.94
2022-12-31T03:36:56.405Z,101255.16
2022-12-31T03:40:20.020Z,101255.00
2022-12-31T03:43:22.486Z,101261.25
2022-12-31T03:46:24.997Z,101256.97
2022-12-31T03:49:27.139Z,101247.03
2022-12-31T03:52:29.688Z,101236.72
2022-12-31T03:55:32.070Z,101238.50
2022-12-31T03:58:34.789Z,101248.94
2022-12-31T04:01:37.100Z,101256.87
2022-12-31T04:04:39.676Z,101235.03
2022-12-31T04:07:42.101Z,101250.59
2022-12-31T04:10:44.625Z,101253.50
2022-12-31T04:13:47.328Z,101251.50
2022-12-31T04:16:50.011Z,101250.50
2022-12-31T04:19:52.360Z,101262.00
2022-12-31T04:22:54.863Z,101253.19
2022-12-31T04:25:57.132Z,101261.31
2022-12-31T04:28:59.642Z,101246.53
2022-12-31T04:32:02.161Z,101260.34
2022-12-31T04:35:05.205Z,101267.91
2022-12-31T04:38:07.381Z,101283.66
2022-12-31T04:41:19.764Z,101267.84
2022-12-31T04:44:22.167Z,101271.37
2022-12-31T04:47:24.626Z,101280.28
2022-12-31T04:50:26.815Z,101288.66
2022-12-31T04:53:29.489Z,101284.56
2022-12-31T04:56:32.357Z,101296.94
2022-12-31T04:59:34.801Z,101299.88
2022-12-31T05:02:37.512Z,101309.66
2022-12-31T05:05:42.792Z,101304.41
2022-12-31T05:08:45.508Z,101314.56
2022-12-31T05:11:48.001Z,101324.00
2022-12-31T05:14:51.491Z,101317.28
2022-12-31T05:17:53.999Z,101314.25
2022-12-31T05:20:56.413Z,101332.88
2022-12-31T05:23:58.919Z,101330.09
2022-12-31T05:27:01.180Z,101325.84
2022-12-31T05:30:05.498Z,101333.47
2022-12-31T05:33:07.759Z,101325.75
2022-12-31T05:36:10.154Z,101322.97
2022-12-31T05:39:12.464Z,101335.50
2022-12-31T05:42:15.014Z,101345.13
2022-12-31T05:45:18.484Z,101347.88
2022-12-31T05:48:21.331Z,101357.41
2022-12-31T05:51:23.385Z,101369.66
2022-12-31T05:54:25.916Z,101353.78
2022-12-31T05:57:28.129Z,101358.97
2022-12-31T06:00:30.699Z,101367.00
2022-12-31T06:03:33.249Z,101365.31
2022-12-31T06:06:35.761Z,101352.06
2022-12-31T06:09:38.537Z,101356.66
2022-12-31T06:12:40.727Z,101364.41
2022-12-31T06:15:43.249Z,101368.84
2022-12-31T06:18:47.687Z,101374.91
2022-12-31T06:21:50.351Z,101367.75
2022-12-31T06:24:52.553Z,101359.88
2022-12-31T06:27:55.160Z,101346.91
2022-12-31T06:31:04.470Z,101347.66
2022-12-31T06:34:07.011Z,101361.50
2022-12-31T06:37:09.236Z,101380.06
2022-12-31T06:40:12.580Z,101380.25
2022-12-31T06:43:14.752Z,101370.53
2022-12-31T06:46:18.358Z,101375.41
2022-12-31T06:49:20.711Z,101382.94
2022-12-31T06:52:23.225Z,101392.84
2022-12-31T06:55:25.852Z,101394.41
2022-12-31T06:58:28.770Z,101384.78
2022-12-31T07:01:50.428Z,101391.16
2022-12-31T07:05:08.649Z,101381.94
2022-12-31T07:08:52.329Z,101391.53
2022-12-31T07:12:04.183Z,101391.53
2022-12-31T07:15:51.162Z,101396.09
2022-12-31T07:19:12.229Z,101397.59
2022-12-31T07:22:16.693Z,101402.75
2022-12-31T07:25:19.616Z,101406.03
2022-12-31T07:28:30.934Z,101406.37
2022-12-31T07:31:49.353Z,101415.22
2022-12-31T07:35:08.303Z,101399.44
2022-12-31T07:38:28.380Z,101410.00
2022-12-31T07:41:48.562Z,101409.63
2022-12-31T07:45:01.227Z,101412.53
2022-12-31T07:48:03.883Z,101416.87
2022-12-31T07:51:06.823Z,101416.03
2022-12-31T07:54:13.886Z,101426.41
2022-12-31T07:57:19.464Z,101430.91
2022-12-31T08:00:22.068Z,101444.81
2022-12-31T08:03:53.993Z,101434.66
2022-12-31T08:07:24.136Z,101418.84
2022-12-31T08:10:42.825Z,101439.69
2022-12-31T08:13:45.775Z,101440.03
2022-12-31T08:16:49.097Z,101429.28
2022-12-31T08:19:51.635Z,101445.59
2022-12-31T08:23:09.857Z,101451.50
2022-12-31T08:26:19.226Z,101449.81
2022-12-31T08:30:01.525Z,101473.28
2022-12-31T08:33:12.666Z,101477.50
2022-12-31T08:36:55.475Z,101477.63
2022-12-31T08:40:19.339Z,101481.47
2022-12-31T08:43:32.522Z,101495.78
2022-12-31T08:46:44.925Z,101495.97
2022-12-31T08:49:47.651Z,101503.81
2022-12-31T08:52:50.171Z,101505.69
2022-12-31T08:56:00.573Z,101501.56
2022-12-31T08:59:44.015Z,101504.87
2022-12-31T09:02:55.630Z,101499.88
2022-12-31T09:06:27.049Z,101485.09
2022-12-31T09:09:38.741Z,101505.28
2022-12-31T09:12:59.126Z,101510.88
2022-12-31T09:16:01.532Z,101497.38
2022-12-31T09:19:04.126Z,101492.09
2022-12-31T09:22:06.765Z,101496.50
2022-12-31T09:25:21.387Z,101498.34
2022-12-31T09:28:56.280Z,101492.38
2022-12-31T09:32:17.398Z,101495.44
2022-12-31T09:35:25.690Z,101478.88
2022-12-31T09:38:40.177Z,101471.84
2022-12-31T09:41:48.738Z,101485.28
2022-12-31T09:45:09.441Z,101468.25
2022-12-31T09:49:03.859Z,101477.06
2022-12-31T09:52:16.582Z,101451.72
2022-12-31T09:55:21.762Z,101456.31
2022-12-31T09:58:52.267Z,101443.09
2022-12-31T10:02:12.923Z,101432.69
2022-12-31T10:05:21.628Z,101437.59
2022-12-31T10:08:48.029Z,101433.63
2022-12-31T10:12:12.621Z,101417.16
2022-12-31T10:15:52.708Z,101425.34
2022-12-31T10:19:47.347Z,101430.81
2022-12-31T10:23:11.002Z,101433.72
2022-12-31T10:26:25.675Z,101444.00
2022-12-31T10:29:46.595Z,101437.91
2022-12-31T10:32:58.799Z,101439.31
2022-12-31T10:36:09.879Z,101443.81
2022-12-31T10:39:24.601Z,101433.69
2022-12-31T10:42:45.576Z,101453.56
2022-12-31T10:46:03.297Z,101446.75
2022-12-31T10:49:24.043Z,101442.25
2022-12-31T10:52:42.355Z,101435.09
2022-12-31T10:56:02.973Z,101432.91
2022-12-31T10:59:29.978Z,101435.00
2022-12-31T11:03:09.605Z,101424.75
2022-12-31T11:06:42.893Z,101445.72
2022-12-31T11:10:20.295Z,101421.25
2022-12-31T11:13:50.995Z,101426.37
2022-12-31T11:17:11.958Z,101420.81
2022-12-31T11:20:33.340Z,101399.31
2022-12-31T11:23:39.481Z,101413.37
2022-12-31T11:26:47.645Z,101417.31
2022-12-31T11:30:00.029Z,101411.75
2022-12-31T11:33:25.508Z,101410.69
2022-12-31T11:36:52.933Z,101410.03
2022-12-31T11:40:20.273Z,101409.03
2022-12-31T11:43:30.708Z,101415.69
2022-12-31T11:47:08.575Z,101414.19
2022-12-31T11:50:19.886Z,101419.09
2022-12-31T11:53:45.595Z,101414.06
2022-12-31T11:57:13.323Z,101400.78
2022-12-31T12:00:19.002Z,101394.06
2022-12-31T12:03:23.072Z,101406.31
2022-12-31T12:06:27.584Z,101417.25
2022-12-31T12:09:34.427Z,101413.41
2022-12-31T12:12:41.425Z,101423.94
2022-12-31T12:15:51.494Z,101414.28
2022-12-31T12:19:16.537Z,101413.53
2022-12-31T12:22:25.394Z,101425.50
2022-12-31T12:25:38.135Z,101422.19
2022-12-31T12:28:45.647Z,101431.59
2022-12-31T12:31:58.670Z,101421.06
2022-12-31T12:35:01.257Z,101432.16
2022-12-31T12:38:06.810Z,101431.88
2022-12-31T12:41:21.291Z,101425.62
2022-12-31T12:44:23.482Z,101430.19
2022-12-31T12:47:26.276Z,101413.50
2022-12-31T12:50:59.305Z,101406.63
2022-12-31T12:54:23.256Z,101418.00
2022-12-31T12:58:00.653Z,101417.06
2022-12-31T13:01:09.257Z,101416.28
2022-12-31T13:04:35.057Z,101412.69
2022-12-31T13:07:54.209Z,101409.59
2022-12-31T13:11:26.430Z,101402.00
2022-12-31T13:15:05.910Z,101404.38
2022-12-31T13:18:26.551Z,101405.94
2022-12-31T13:21:28.960Z,101403.59
2022-12-31T13:24:47.059Z,101405.94
2022-12-31T13:27:52.369Z,101412.97
2022-12-31T13:31:06.535Z,101422.66
2022-12-31T13:34:17.151Z,101420.91
2022-12-31T13:37:36.676Z,101426.84
2022-12-31T13:40:44.966Z,101433.00
2022-12-31T13:43:56.592Z,101431.25
2022-12-31T13:47:08.676Z,101425.25
2022-12-31T13:50:29.145Z,101422.12
2022-12-31T13:54:05.771Z,101418.56
2022-12-31T13:57:33.745Z,101406.91
2022-12-31T14:00:41.024Z,101422.47
2022-12-31T14:03:56.754Z,101432.38
2022-12-31T14:07:12.021Z,101427.88
2022-12-31T14:10:16.211Z,101431.47
2022-12-31T14:13:47.246Z,101439.00
2022-12-31T14:17:00.644Z,101438.38
2022-12-31T14:20:28.328Z,101443.59
2022-12-31T14:23:56.531Z,101443.72
2022-12-31T14:27:02.508Z,101447.91
2022-12-31T14:30:09.828Z,101438.28
2022-12-31T14:33:44.345Z,101436.97
2022-12-31T14:37:07.915Z,101454.84
2022-12-31T14:40:34.718Z,101452.41
2022-12-31T14:43:47.792Z,101442.72
2022-12-31T14:47:02.341Z,101450.69
2022-12-31T14:50:15.797Z,101442.00
2022-12-31T14:53:24.542Z,101446.47
2022-12-31T14:56:31.520Z,101437.97
2022-12-31T14:59:40.108Z,101433.13
2022-12-31T15:02:51.118Z,101438.59
2022-12-31T15:06:11.223Z,101447.34
2022-12-31T15:09:33.953Z,101446.69
2022-12-31T15:12:58.031Z,101447.69
2022-12-31T15:16:06.434Z,101450.50
2022-12-31T15:19:51.740Z,101447.00
2022-12-31T15:22:54.810Z,101433.56
2022-12-31T15:26:02.092Z,101432.00
2022-12-31T15:29:07.949Z,101438.97
2022-12-31T15:32:24.178Z,101455.31
2022-12-31T15:35:31.587Z,101452.69
2022-12-31T15:38:38.110Z,101462.78
2022-12-31T15:42:10.250Z,101450.66
2022-12-31T15:45:11.798Z,101458.34
2022-12-31T15:48:36.824Z,101460.06
2022-12-31T15:51:51.915Z,101457.41
2022-12-31T15:54:57.294Z,101462.09
2022-12-31T15:58:05.015Z,101469.16
2022-12-31T16:01:21.918Z,101460.91
2022-12-31T16:04:34.719Z,101461.25
2022-12-31T16:07:38.636Z,101471.25
2022-12-31T16:10:44.119Z,101463.03
2022-12-31T16:13:53.325Z,101460.66
2022-12-31T16:16:58.166Z,101472.19
2022-12-31T16:20:02.406Z,101466.50
2022-12-31T16:23:20.281Z,101459.19
2022-12-31T16:26:43.459Z,101448.84
2022-12-31T16:29:55.577Z,101447.88
2022-12-31T16:33:01.574Z,101450.56
2022-12-31T16:36:05.185Z,101446.81
2022-12-31T16:39:24.433Z,101455.25
2022-12-31T16:42:28.863Z,101445.75
2022-12-31T16:45:36.600Z,101444.50
2022-12-31T16:48:39.361Z,101450.84
2022-12-31T16:51:42.015Z,101454.72
2022-12-31T16:54:47.635Z,101459.41
2022-12-31T16:57:57.966Z,101460.34
2022-12-31T17:01:14.675Z,101465.41
2022-12-31T17:04:20.296Z,101460.16
2022-12-31T17:07:31.967Z,101471.13
2022-12-31T17:10:36.171Z,101461.56
2022-12-31T17:13:38.761Z,101471.78
2022-12-31T17:17:03.057Z,101485.53
2022-12-31T17:20:11.330Z,101483.25
2022-12-31T17:23:23.298Z,101469.41
2022-12-31T17:26:28.643Z,101479.38
2022-12-31T17:29:31.189Z,101462.88
2022-12-31T17:32:37.188Z,101465.56
2022-12-31T17:35:42.509Z,101478.72
2022-12-31T17:38:45.076Z,101485.66
2022-12-31T17:41:49.443Z,101488.03
2022-12-31T17:44:56.361Z,101500.44
2022-12-31T17:47:59.793Z,101496.84
2022-12-31T17:51:02.216Z,101496.72
2022-12-31T17:54:17.384Z,101507.38
2022-12-31T17:57:26.682Z,101500.91
2022-12-31T18:00:29.205Z,101503.41
2022-12-31T18:03:31.925Z,101507.06
2022-12-31T18:06:34.072Z,101506.50
2022-12-31T18:09:36.515Z,101507.75
2022-12-31T18:12:39.180Z,101498.63
2022-12-31T18:15:41.725Z,101493.19
2022-12-31T18:18:45.364Z,101499.62
2022-12-31T18:21:48.064Z,101502.53
2022-12-31T18:24:54.251Z,101496.41
2022-12-31T18:27:56.745Z,101506.34
2022-12-31T18:30:59.037Z,101499.53
2022-12-31T18:34:01.559Z,101500.81
2022-12-31T18:37:14.007Z,101504.41
2022-12-31T18:40:20.441Z,101506.12
2022-12-31T18:43:23.396Z,101502.84
2022-12-31T18:46:26.975Z,101509.97
2022-12-31T18:49:29.178Z,101520.34
2022-12-31T18:52:31.661Z,101520.34
2022-12-31T18:55:44.240Z,101522.75
2022-12-31T18:58:47.471Z,101530.47
2022-12-31T19:01:49.797Z,101540.44
2022-12-31T19:04:52.409Z,101541.41
2022-12-31T19:07:55.061Z,101535.28
2022-12-31T19:10:57.589Z,101527.91
2022-12-31T19:13:59.769Z,101522.28
2022-12-31T19:20:04.459Z,101529.69
2022-12-31T19:23:13.263Z,101529.84
2022-12-31T19:26:18.934Z,101528.28
2022-12-31T19:29:26.825Z,101525.84
2022-12-31T19:32:29.219Z,101523.38
2022-12-31T19:35:31.670Z,101526.09
2022-12-31T19:38:34.234Z,101516.91
2022-12-31T19:41:36.688Z,101514.53
2022-12-31T19:44:38.886Z,101520.88
2022-12-31T19:47:41.555Z,101530.59
2022-12-31T19:50:49.783Z,101533.34
2022-12-31T19:53:52.343Z,101543.16
2022-12-31T19:56:54.496Z,101528.41
2022-12-31T19:59:56.992Z,101519.41
2022-12-31T20:02:59.472Z,101510.28
2022-12-31T20:06:08.106Z,101507.44
2022-12-31T20:09:11.541Z,101505.72
2022-12-31T20:12:14.168Z,101500.09
2022-12-31T20:15:16.428Z,101503.22
2022-12-31T20:18:21.170Z,101512.19
2022-12-31T20:21:28.390Z,101496.44
2022-12-31T20:24:30.918Z,101489.66
2022-12-31T20:27:33.715Z,101493.09
2022-12-31T20:30:38.724Z,101498.59
2022-12-31T20:33:41.740Z,101494.25
2022-12-31T20:36:44.496Z,101507.25
2022-12-31T20:39:46.765Z,101508.19
2022-12-31T20:42:49.203Z,101503.94
2022-12-31T20:45:51.482Z,101499.72
2022-12-31T20:48:59.379Z,101510.34
2022-12-31T20:52:03.903Z,101519.09
2022-12-31T20:55:06.832Z,101521.44
2022-12-31T20:58:09.042Z,101519.09
2022-12-31T21:01:12.702Z,101506.97
2022-12-31T21:04:15.113Z,101499.44
2022-12-31T21:07:17.743Z,101504.03
2022-12-31T21:10:20.414Z,101503.38
2022-12-31T21:13:23.200Z,101499.06
2022-12-31T21:16:26.381Z,101499.06
2022-12-31T21:19:28.919Z,101500.75
2022-12-31T21:22:33.778Z,101508.72
2022-12-31T21:25:36.332Z,101507.13
2022-12-31T21:28:38.912Z,101513.47
2022-12-31T21:31:41.477Z,101522.03
2022-12-31T21:34:43.645Z,101528.19
2022-12-31T21:37:58.196Z,101529.03
2022-12-31T21:41:04.109Z,101534.38
2022-12-31T21:44:06.609Z,101530.06
2022-12-31T21:47:37.451Z,101535.41
2022-12-31T21:50:42.188Z,101539.00
2022-12-31T21:53:44.388Z,101554.81
2022-12-31T21:56:46.880Z,101554.72
2022-12-31T22:00:40.308Z,101546.53
2022-12-31T22:03:31.693Z,101543.25
2022-12-31T22:06:36.436Z,101551.97
2022-12-31T22:09:38.889Z,101549.22
2022-12-31T22:12:41.135Z,101551.06
2022-12-31T22:15:49.085Z,101558.25
2022-12-31T22:18:51.355Z,101559.41
2022-12-31T22:21:53.882Z,101555.94
2022-12-31T22:24:56.333Z,101559.97
2022-12-31T22:28:36.075Z,101557.53
2022-12-31T22:31:24.524Z,101555.91
2022-12-31T22:34:27.377Z,101555.00
2022-12-31T22:37:56.367Z,101555.09
2022-12-31T22:40:52.064Z,101548.78
2022-12-31T22:44:02.971Z,101545.34
2022-12-31T22:47:06.423Z,101542.72
2022-12-31T22:50:08.850Z,101535.84
2022-12-31T22:53:11.365Z,101528.81
2022-12-31T22:56:16.160Z,101529.16
2022-12-31T22:59:18.712Z,101530.31
2022-12-31T23:02:21.343Z,101526.16
2022-12-31T23:05:23.876Z,101543.00
2022-12-31T23:08:26.374Z,101528.31
2022-12-31T23:11:29.545Z,101514.19
2022-12-31T23:14:50.299Z,101521.44
2022-12-31T23:18:11.111Z,101519.16
2022-12-31T23:21:32.364Z,101519.56
2022-12-31T23:24:34.987Z,101512.88
2022-12-31T23:27:37.284Z,101524.41
2022-12-31T23:30:40.691Z,101519.44
2022-12-31T23:33:42.885Z,101518.66
2022-12-31T23:36:45.553Z,101531.06
2022-12-31T23:39:47.788Z,101521.56
2022-12-31T23:42:50.649Z,101531.94
2022-12-31T23:45:53.356Z,101533.91
2022-12-31T23:48:55.867Z,101546.25
2022-12-31T23:51:58.107Z,101547.25
2022-12-31T23:55:00.613Z,101545.66
2022-12-31T23:58:02.827Z,101532.63
